Time;durP1;ratioP1;P1;durP2;ratioP2;P2;SDS_P1;SDS_P2;PMS_P1;PMS_P2;Temp;Humidity;BMP_temperature;BMP_pressure;BME280_temperature;BME280_humidity;BME280_pressure;Samples;Min_cycle;Max_cycle;Signal;HPM_P1;HPM_P2
2023/08/10 00:01:55;;;;;;;8.38;3.28;;;;;;;;;;5036607;28;20112;-72
2023/08/10 00:04:21;;;;;;;8.88;3.25;;;;;;;;;;5053808;28;20033;-72
2023/08/10 00:06:47;;;;;;;9.00;2.90;;;;;;;;;;5063693;28;20500;-72
2023/08/10 00:09:13;;;;;;;7.00;2.80;;;;;;;;;;5055118;28;20453;-72
2023/08/10 00:11:39;;;;;;;8.15;2.88;;;;;;;;;;5052844;28;20048;-72
2023/08/10 00:14:06;;;;;;;6.40;2.53;;;;;;;;;;5052444;28;20049;-73
2023/08/10 00:16:33;;;;;;;8.63;2.90;;;;;;;;;;5036739;28;20037;-72
2023/08/10 00:19:02;;;;;;;9.63;2.83;;;;;;;;;;5052901;28;20049;-72
2023/08/10 00:21:28;;;;;;;5.60;2.72;;;;;;;;;;5051897;28;20048;-72
2023/08/10 00:23:56;;;;;;;6.20;2.83;;;;;;;;;;5036252;28;20501;-73
2023/08/10 00:26:23;;;;;;;7.20;2.88;;;;;;;;;;5053172;28;20051;-72
2023/08/10 00:28:49;;;;;;;6.25;3.10;;;;;;;;;;5052928;28;20051;-72
2023/08/10 00:31:15;;;;;;;7.95;3.10;;;;;;;;;;5052574;28;20041;-72
2023/08/10 00:33:42;;;;;;;9.15;3.20;;;;;;;;;;5051344;28;20094;-72
2023/08/10 00:36:08;;;;;;;10.43;3.10;;;;;;;;;;5052143;28;20070;-72
2023/08/10 00:38:35;;;;;;;11.73;3.35;;;;;;;;;;5053332;28;20052;-72
2023/08/10 00:41:01;;;;;;;7.80;3.25;;;;;;;;;;5053841;28;20044;-72
2023/08/10 00:43:27;;;;;;;9.70;3.17;;;;;;;;;;5053636;28;20041;-72
2023/08/10 00:45:54;;;;;;;7.68;3.08;;;;;;;;;;5050218;28;20041;-72
2023/08/10 00:48:21;;;;;;;7.25;2.80;;;;;;;;;;5044430;28;20123;-73
2023/08/10 00:50:48;;;;;;;5.32;2.90;;;;;;;;;;5055051;28;20435;-72
2023/08/10 00:53:14;;;;;;;8.32;3.00;;;;;;;;;;5037734;28;20493;-73
2023/08/10 00:55:42;;;;;;;9.02;3.28;;;;;;;;;;5051454;28;20033;-73
2023/08/10 00:58:08;;;;;;;9.02;3.00;;;;;;;;;;5053847;28;20519;-72
2023/08/10 01:00:34;;;;;;;10.45;2.78;;;;;;;;;;5058915;28;20040;-72
2023/08/10 01:03:01;;;;;;;5.90;2.72;;;;;;;;;;5053195;28;20037;-72
2023/08/10 01:05:30;;;;;;;7.03;2.60;;;;;;;;;;5051560;28;20045;-73
2023/08/10 01:08:00;;;;;;;6.68;2.67;;;;;;;;;;5051797;28;20548;-72
2023/08/10 01:10:36;;;;;;;6.22;3.08;;;;;;;;;;5054302;28;20507;-71
2023/08/10 01:13:25;;;;;;;8.48;2.92;;;;;;;;;;5035235;28;20072;-71
2023/08/10 01:15:54;;;;;;;5.32;2.95;;;;;;;;;;5063283;28;20041;-72
2023/08/10 01:18:25;;;;;;;8.38;2.88;;;;;;;;;;5051648;28;20048;-72
2023/08/10 01:20:51;;;;;;;6.43;2.85;;;;;;;;;;5051801;28;20037;-72
2023/08/10 01:23:26;;;;;;;9.05;3.40;;;;;;;;;;5052265;28;20382;-72
2023/08/10 01:25:52;;;;;;;7.85;3.20;;;;;;;;;;5051454;28;20048;-72
2023/08/10 01:28:19;;;;;;;6.07;3.00;;;;;;;;;;5050971;28;20033;-72
2023/08/10 01:30:45;;;;;;;6.70;2.90;;;;;;;;;;5063227;28;20079;-72
2023/08/10 01:33:13;;;;;;;10.02;2.80;;;;;;;;;;5036382;28;20041;-73
2023/08/10 01:35:39;;;;;;;8.10;3.00;;;;;;;;;;5051442;28;20041;-73
2023/08/10 01:38:05;;;;;;;8.27;3.25;;;;;;;;;;5050985;28;20063;-73
2023/08/10 01:40:34;;;;;;;8.93;3.47;;;;;;;;;;5035926;28;20090;-73
2023/08/10 01:43:02;;;;;;;9.27;3.35;;;;;;;;;;5052662;28;20126;-73
2023/08/10 01:45:28;;;;;;;8.65;2.92;;;;;;;;;;5055705;28;20413;-73
2023/08/10 01:47:56;;;;;;;8.80;3.30;;;;;;;;;;5022333;28;20131;-73
2023/08/10 01:50:23;;;;;;;5.80;3.10;;;;;;;;;;5055566;28;20056;-73
2023/08/10 01:52:51;;;;;;;6.38;2.75;;;;;;;;;;5056167;28;20044;-72
2023/08/10 01:55:17;;;;;;;5.15;2.50;;;;;;;;;;5055479;28;20485;-72
2023/08/10 01:57:44;;;;;;;5.55;2.75;;;;;;;;;;5055367;28;20041;-72
2023/08/10 02:00:12;;;;;;;6.57;2.60;;;;;;;;;;5055997;28;20045;-72
2023/08/10 02:02:38;;;;;;;5.60;2.55;;;;;;;;;;5056455;28;20223;-72
2023/08/10 02:05:04;;;;;;;6.40;2.47;;;;;;;;;;5055501;28;20480;-72
2023/08/10 02:07:30;;;;;;;5.45;2.38;;;;;;;;;;5055448;28;20040;-72
2023/08/10 02:09:57;;;;;;;9.88;3.03;;;;;;;;;;5054825;28;20080;-72
2023/08/10 02:12:24;;;;;;;9.18;2.75;;;;;;;;;;5056072;28;20051;-72
2023/08/10 02:14:50;;;;;;;6.28;2.40;;;;;;;;;;5056299;28;20037;-72
2023/08/10 02:17:17;;;;;;;4.95;2.40;;;;;;;;;;5038235;28;20044;-72
2023/08/10 02:19:43;;;;;;;5.32;2.45;;;;;;;;;;5054680;28;20037;-72
2023/08/10 02:22:09;;;;;;;4.47;2.50;;;;;;;;;;5054531;28;20049;-72
2023/08/10 02:24:35;;;;;;;8.05;2.50;;;;;;;;;;5067092;28;20052;-72
2023/08/10 02:27:02;;;;;;;5.95;2.53;;;;;;;;;;5034960;28;20041;-72
2023/08/10 02:29:28;;;;;;;6.97;2.40;;;;;;;;;;5055105;28;20041;-72
2023/08/10 02:31:54;;;;;;;5.80;2.40;;;;;;;;;;5054407;28;20079;-72
2023/08/10 02:34:20;;;;;;;5.82;2.22;;;;;;;;;;5055949;28;20041;-72
2023/08/10 02:36:46;;;;;;;6.22;2.80;;;;;;;;;;5037833;28;20052;-72
2023/08/10 02:39:13;;;;;;;4.57;2.20;;;;;;;;;;5038209;28;20037;-72
2023/08/10 02:41:39;;;;;;;5.40;2.25;;;;;;;;;;5054391;28;20119;-72
2023/08/10 02:44:05;;;;;;;4.30;2.25;;;;;;;;;;5061859;28;20047;-72
2023/08/10 02:46:32;;;;;;;4.60;2.55;;;;;;;;;;5056015;28;20049;-72
2023/08/10 02:48:58;;;;;;;6.30;2.30;;;;;;;;;;5037765;28;20045;-72
2023/08/10 02:51:24;;;;;;;3.83;2.40;;;;;;;;;;5054345;28;20404;-72
2023/08/10 02:53:50;;;;;;;5.50;2.35;;;;;;;;;;5055102;28;20045;-72
2023/08/10 02:56:17;;;;;;;6.85;2.55;;;;;;;;;;5061131;28;20128;-72
2023/08/10 02:58:43;;;;;;;10.15;3.60;;;;;;;;;;5054490;28;20045;-72
2023/08/10 03:01:09;;;;;;;8.88;3.00;;;;;;;;;;5054178;28;20374;-72
2023/08/10 03:03:35;;;;;;;6.30;2.95;;;;;;;;;;5040051;28;20037;-72
2023/08/10 03:06:02;;;;;;;4.63;2.60;;;;;;;;;;5055187;28;20037;-72
2023/08/10 03:08:28;;;;;;;8.02;3.03;;;;;;;;;;5055277;28;20048;-72
2023/08/10 03:10:54;;;;;;;4.32;2.88;;;;;;;;;;5053937;28;20440;-72
2023/08/10 03:13:20;;;;;;;5.20;2.72;;;;;;;;;;5054530;28;20508;-72
2023/08/10 03:15:46;;;;;;;6.75;2.78;;;;;;;;;;5038723;28;20072;-73
2023/08/10 03:18:12;;;;;;;5.80;2.47;;;;;;;;;;5053856;28;20043;-73
2023/08/10 03:20:38;;;;;;;5.60;2.85;;;;;;;;;;5054733;28;20408;-72
2023/08/10 03:23:04;;;;;;;4.28;2.50;;;;;;;;;;5053484;28;20049;-72
2023/08/10 03:25:32;;;;;;;8.68;2.80;;;;;;;;;;5054478;28;20119;-72
2023/08/10 03:27:58;;;;;;;7.60;2.90;;;;;;;;;;5054841;28;20037;-72
2023/08/10 03:30:24;;;;;;;5.82;3.08;;;;;;;;;;5037120;28;20049;-72
2023/08/10 03:32:50;;;;;;;6.13;2.67;;;;;;;;;;5036641;28;20040;-72
2023/08/10 03:35:16;;;;;;;9.23;3.10;;;;;;;;;;5053927;28;20375;-72
2023/08/10 03:37:42;;;;;;;5.00;2.60;;;;;;;;;;5066475;28;20037;-72
2023/08/10 03:40:09;;;;;;;8.25;2.63;;;;;;;;;;5053518;28;20070;-73
2023/08/10 03:42:35;;;;;;;4.35;2.60;;;;;;;;;;5053190;28;20025;-72
2023/08/10 03:45:01;;;;;;;4.05;2.50;;;;;;;;;;5053534;28;20048;-72
2023/08/10 03:47:27;;;;;;;6.00;3.10;;;;;;;;;;5063483;28;20481;-72
2023/08/10 03:49:53;;;;;;;4.60;2.80;;;;;;;;;;5054035;28;20036;-72
2023/08/10 03:52:20;;;;;;;5.13;2.60;;;;;;;;;;5053826;28;20493;-73
2023/08/10 03:54:47;;;;;;;6.47;2.65;;;;;;;;;;5053208;28;20098;-72
2023/08/10 03:57:13;;;;;;;7.47;2.80;;;;;;;;;;5054014;28;20377;-72
2023/08/10 03:59:39;;;;;;;6.50;3.00;;;;;;;;;;5053095;28;20045;-72
2023/08/10 04:02:05;;;;;;;9.00;2.70;;;;;;;;;;5053257;28;20481;-72
2023/08/10 04:04:32;;;;;;;8.15;3.55;;;;;;;;;;5036104;28;20090;-72
2023/08/10 04:06:58;;;;;;;9.27;3.35;;;;;;;;;;5052695;28;20041;-73
2023/08/10 04:09:24;;;;;;;6.28;2.97;;;;;;;;;;5025824;28;20048;-72
2023/08/10 04:11:50;;;;;;;6.60;2.90;;;;;;;;;;5047972;28;20079;-72
2023/08/10 04:14:16;;;;;;;6.90;3.08;;;;;;;;;;5052565;28;20559;-72
2023/08/10 04:16:42;;;;;;;10.63;3.00;;;;;;;;;;5052759;28;20071;-72
2023/08/10 04:19:08;;;;;;;6.88;3.30;;;;;;;;;;5057744;28;20044;-72
2023/08/10 04:21:35;;;;;;;5.22;3.03;;;;;;;;;;5052223;28;20120;-72
2023/08/10 04:24:01;;;;;;;5.05;2.97;;;;;;;;;;5053514;28;20558;-72
2023/08/10 04:26:27;;;;;;;5.10;2.72;;;;;;;;;;5052485;28;20041;-72
2023/08/10 04:28:53;;;;;;;7.93;3.30;;;;;;;;;;5053456;28;20072;-72
2023/08/10 04:31:19;;;;;;;8.80;3.10;;;;;;;;;;5052536;28;20044;-72
2023/08/10 04:33:46;;;;;;;6.70;2.90;;;;;;;;;;5052363;28;20095;-72
2023/08/10 04:36:12;;;;;;;8.40;2.85;;;;;;;;;;5052231;28;20037;-72
2023/08/10 04:38:38;;;;;;;4.55;2.90;;;;;;;;;;5051514;28;20135;-73
2023/08/10 04:41:04;;;;;;;3.90;2.63;;;;;;;;;;5053207;28;20045;-72
2023/08/10 04:43:30;;;;;;;9.35;3.10;;;;;;;;;;5052415;28;20110;-72
2023/08/10 04:45:56;;;;;;;10.43;3.47;;;;;;;;;;5051640;28;20136;-72
2023/08/10 04:48:22;;;;;;;11.23;3.53;;;;;;;;;;5052153;28;20041;-73
2023/08/10 04:50:48;;;;;;;8.10;3.63;;;;;;;;;;5054402;28;20043;-73
2023/08/10 04:53:14;;;;;;;11.23;3.65;;;;;;;;;;5051402;28;20067;-72
2023/08/10 04:55:40;;;;;;;5.03;3.13;;;;;;;;;;5052038;28;20485;-73
2023/08/10 04:58:06;;;;;;;5.15;2.70;;;;;;;;;;5034978;28;20097;-73
2023/08/10 05:00:32;;;;;;;6.75;2.88;;;;;;;;;;5051963;28;20045;-72
2023/08/10 05:02:58;;;;;;;6.65;3.15;;;;;;;;;;5035538;28;20037;-72
2023/08/10 05:05:25;;;;;;;8.13;3.40;;;;;;;;;;5035267;28;20045;-72
2023/08/10 05:07:51;;;;;;;7.05;3.35;;;;;;;;;;5050782;28;20032;-72
2023/08/10 05:10:17;;;;;;;10.80;3.53;;;;;;;;;;5055353;28;20065;-72
2023/08/10 05:12:43;;;;;;;7.78;3.78;;;;;;;;;;5053422;28;20047;-72
2023/08/10 05:15:09;;;;;;;8.52;2.83;;;;;;;;;;5052119;28;20493;-73
2023/08/10 05:17:37;;;;;;;5.97;3.00;;;;;;;;;;5049874;28;20037;-72
2023/08/10 05:20:10;;;;;;;6.22;2.85;;;;;;;;;;5051450;28;20508;-72
2023/08/10 05:22:37;;;;;;;8.15;3.17;;;;;;;;;;5037193;28;20122;-72
2023/08/10 05:25:04;;;;;;;6.85;3.13;;;;;;;;;;5049131;28;20103;-72
2023/08/10 05:27:30;;;;;;;8.13;3.33;;;;;;;;;;5059083;28;20048;-73
2023/08/10 05:29:56;;;;;;;7.10;3.10;;;;;;;;;;5079762;28;20042;-73
2023/08/10 05:32:22;;;;;;;8.85;3.50;;;;;;;;;;5047959;28;20508;-72
2023/08/10 05:34:48;;;;;;;6.72;2.92;;;;;;;;;;5044698;28;20405;-72
2023/08/10 05:37:14;;;;;;;6.65;3.35;;;;;;;;;;5057934;28;20041;-73
2023/08/10 05:39:40;;;;;;;5.00;2.70;;;;;;;;;;5044826;28;20120;-73
2023/08/10 05:42:06;;;;;;;6.60;2.90;;;;;;;;;;5047867;28;20075;-73
2023/08/10 05:44:32;;;;;;;9.35;2.60;;;;;;;;;;5041266;28;20045;-72
2023/08/10 05:46:58;;;;;;;6.47;2.35;;;;;;;;;;5047739;28;20052;-72
2023/08/10 05:49:25;;;;;;;10.77;2.80;;;;;;;;;;5048188;28;20127;-73
2023/08/10 05:51:51;;;;;;;6.07;2.45;;;;;;;;;;5044931;28;20550;-72
2023/08/10 05:54:17;;;;;;;9.80;2.90;;;;;;;;;;5051653;28;20051;-72
2023/08/10 05:56:43;;;;;;;8.68;2.75;;;;;;;;;;5068011;28;20037;-73
2023/08/10 05:59:09;;;;;;;9.90;3.05;;;;;;;;;;5051195;28;20045;-73
2023/08/10 06:01:35;;;;;;;6.07;2.55;;;;;;;;;;5052086;28;20505;-73
2023/08/10 06:04:02;;;;;;;6.40;2.78;;;;;;;;;;5051140;28;20040;-73
2023/08/10 06:06:29;;;;;;;7.13;3.17;;;;;;;;;;5035132;28;20037;-72
2023/08/10 06:08:55;;;;;;;6.53;2.90;;;;;;;;;;5052026;28;20116;-72
2023/08/10 06:11:21;;;;;;;6.60;2.90;;;;;;;;;;5050956;28;20094;-72
2023/08/10 06:13:47;;;;;;;6.88;3.10;;;;;;;;;;5054323;28;20036;-73
2023/08/10 06:16:13;;;;;;;8.18;3.08;;;;;;;;;;5050681;28;20091;-73
2023/08/10 06:18:40;;;;;;;7.43;3.42;;;;;;;;;;5034276;28;20049;-72
2023/08/10 06:21:06;;;;;;;10.77;3.22;;;;;;;;;;5051093;28;20073;-73
2023/08/10 06:23:33;;;;;;;7.75;2.90;;;;;;;;;;5051347;28;20465;-73
2023/08/10 06:26:00;;;;;;;7.25;3.03;;;;;;;;;;5051847;28;20056;-71
2023/08/10 06:28:27;;;;;;;5.68;3.00;;;;;;;;;;5033842;28;20045;-71
2023/08/10 06:30:53;;;;;;;4.78;2.83;;;;;;;;;;5051994;28;20048;-72
2023/08/10 06:33:19;;;;;;;8.57;2.72;;;;;;;;;;5047071;28;20533;-72
2023/08/10 06:35:45;;;;;;;6.13;2.58;;;;;;;;;;5038987;28;20048;-72
2023/08/10 06:38:12;;;;;;;6.95;2.30;;;;;;;;;;5049230;28;20485;-72
2023/08/10 06:40:38;;;;;;;13.82;2.70;;;;;;;;;;5038016;28;20128;-72
2023/08/10 06:43:04;;;;;;;6.88;2.58;;;;;;;;;;5047327;28;20079;-72
2023/08/10 06:45:30;;;;;;;6.88;2.90;;;;;;;;;;5051968;28;20044;-72
2023/08/10 06:47:56;;;;;;;5.22;2.35;;;;;;;;;;5049421;28;20127;-72
2023/08/10 06:50:23;;;;;;;4.30;2.20;;;;;;;;;;5044923;28;20430;-72
2023/08/10 06:52:49;;;;;;;7.97;2.50;;;;;;;;;;5034825;28;20084;-72
2023/08/10 06:55:15;;;;;;;7.38;2.40;;;;;;;;;;5063789;28;20045;-72
2023/08/10 06:57:41;;;;;;;9.20;2.30;;;;;;;;;;5037908;28;20507;-72
2023/08/10 07:00:13;;;;;;;8.00;2.75;;;;;;;;;;5054034;28;20080;-72
2023/08/10 07:02:39;;;;;;;8.65;2.50;;;;;;;;;;5054167;28;20044;-72
2023/08/10 07:05:06;;;;;;;9.65;2.30;;;;;;;;;;5055409;28;20045;-72
2023/08/10 07:07:32;;;;;;;7.88;2.22;;;;;;;;;;5054203;28;20437;-72
2023/08/10 07:09:58;;;;;;;8.07;2.50;;;;;;;;;;5055207;28;20562;-73
2023/08/10 07:12:24;;;;;;;6.22;2.00;;;;;;;;;;5053919;28;20075;-72
2023/08/10 07:14:51;;;;;;;3.50;2.10;;;;;;;;;;5055007;28;20033;-72
2023/08/10 07:17:17;;;;;;;8.30;2.30;;;;;;;;;;5056068;28;20533;-72
2023/08/10 07:19:43;;;;;;;5.82;1.90;;;;;;;;;;5017299;28;20056;-72
2023/08/10 07:22:09;;;;;;;7.93;2.38;;;;;;;;;;5064982;28;20060;-72
2023/08/10 07:24:35;;;;;;;6.57;2.08;;;;;;;;;;5055065;28;20066;-73
2023/08/10 07:27:01;;;;;;;7.45;1.60;;;;;;;;;;5060733;28;20043;-72
2023/08/10 07:29:27;;;;;;;6.10;1.70;;;;;;;;;;5049603;28;20044;-72
2023/08/10 07:32:00;;;;;;;6.82;1.67;;;;;;;;;;5068781;28;20049;-72
2023/08/10 07:34:27;;;;;;;6.53;1.60;;;;;;;;;;5069792;28;20048;-72
2023/08/10 07:36:54;;;;;;;7.22;1.63;;;;;;;;;;5052589;28;20488;-72
2023/08/10 07:39:20;;;;;;;5.55;1.30;;;;;;;;;;5041872;28;20048;-72
2023/08/10 07:41:46;;;;;;;5.93;1.95;;;;;;;;;;5034744;28;20516;-73
2023/08/10 07:44:12;;;;;;;7.38;1.40;;;;;;;;;;5069684;28;20103;-73
2023/08/10 07:46:38;;;;;;;5.32;1.40;;;;;;;;;;5045180;28;20044;-73
2023/08/10 07:49:05;;;;;;;6.07;1.48;;;;;;;;;;5046201;28;20099;-73
2023/08/10 07:51:31;;;;;;;5.35;1.70;;;;;;;;;;5034619;28;20037;-73
2023/08/10 07:53:57;;;;;;;7.28;1.60;;;;;;;;;;5040877;28;20045;-73
2023/08/10 07:56:23;;;;;;;6.22;1.70;;;;;;;;;;5052928;28;20045;-73
2023/08/10 07:58:49;;;;;;;6.00;1.70;;;;;;;;;;5067727;28;20041;-73
2023/08/10 08:01:15;;;;;;;5.55;1.63;;;;;;;;;;5053332;28;20033;-73
2023/08/10 08:03:42;;;;;;;5.57;1.83;;;;;;;;;;5054450;28;20120;-73
2023/08/10 08:06:08;;;;;;;3.85;1.60;;;;;;;;;;5053251;28;20497;-73
2023/08/10 08:08:34;;;;;;;5.18;1.30;;;;;;;;;;5063924;28;20046;-73
2023/08/10 08:11:00;;;;;;;4.43;1.10;;;;;;;;;;5052998;28;20547;-73
2023/08/10 08:13:26;;;;;;;6.22;1.38;;;;;;;;;;5052830;28;20045;-73
2023/08/10 08:15:52;;;;;;;4.05;1.10;;;;;;;;;;5050693;28;20069;-73
2023/08/10 08:18:37;;;;;;;5.30;1.23;;;;;;;;;;5054713;28;20481;-73
2023/08/10 08:21:04;;;;;;;5.23;1.20;;;;;;;;;;5050260;28;20139;-73
2023/08/10 08:23:30;;;;;;;3.97;1.10;;;;;;;;;;5050957;28;20048;-73
2023/08/10 08:25:56;;;;;;;5.28;1.20;;;;;;;;;;5047615;28;20083;-73
2023/08/10 08:28:23;;;;;;;4.75;1.25;;;;;;;;;;5053313;28;20094;-73
2023/08/10 08:30:50;;;;;;;5.47;1.25;;;;;;;;;;5051414;28;20523;-73
2023/08/10 08:33:16;;;;;;;5.65;1.58;;;;;;;;;;5050647;28;20468;-73
2023/08/10 08:35:46;;;;;;;5.45;1.30;;;;;;;;;;5083876;28;20040;-73
2023/08/10 08:38:13;;;;;;;4.88;1.20;;;;;;;;;;5050109;28;20419;-73
2023/08/10 08:40:39;;;;;;;5.40;1.45;;;;;;;;;;5055159;28;20175;-73
2023/08/10 08:43:05;;;;;;;5.07;1.35;;;;;;;;;;5049799;28;20044;-73
2023/08/10 08:45:32;;;;;;;5.85;1.20;;;;;;;;;;5049723;28;20056;-73
2023/08/10 08:47:58;;;;;;;7.30;1.50;;;;;;;;;;5049522;28;20048;-74
2023/08/10 08:50:27;;;;;;;6.90;1.80;;;;;;;;;;5050839;28;20041;-73
2023/08/10 08:52:53;;;;;;;4.90;1.30;;;;;;;;;;5048772;28;20044;-73
2023/08/10 08:55:20;;;;;;;6.32;1.10;;;;;;;;;;5049446;28;20523;-73
2023/08/10 08:57:47;;;;;;;4.97;1.38;;;;;;;;;;5053183;28;20142;-73
2023/08/10 09:00:14;;;;;;;5.38;1.30;;;;;;;;;;5053719;28;20511;-74
2023/08/10 09:02:40;;;;;;;4.18;1.20;;;;;;;;;;5052146;28;20068;-73
2023/08/10 09:05:07;;;;;;;3.15;1.10;;;;;;;;;;5035146;28;20041;-73
2023/08/10 09:07:33;;;;;;;6.53;1.33;;;;;;;;;;5051459;28;20044;-73
2023/08/10 09:09:59;;;;;;;4.75;1.20;;;;;;;;;;5052055;28;20044;-73
2023/08/10 09:12:32;;;;;;;4.22;1.27;;;;;;;;;;5066830;28;20033;-73
2023/08/10 09:15:04;;;;;;;4.38;1.23;;;;;;;;;;5051721;28;20106;-74
2023/08/10 09:17:34;;;;;;;5.05;1.45;;;;;;;;;;5051522;28;20041;-74
2023/08/10 09:20:01;;;;;;;6.13;1.67;;;;;;;;;;5035292;28;20501;-74
2023/08/10 09:22:34;;;;;;;5.88;1.30;;;;;;;;;;5035726;28;20562;-74
2023/08/10 09:25:00;;;;;;;5.13;1.30;;;;;;;;;;5051714;28;20110;-74
2023/08/10 09:27:27;;;;;;;9.55;1.80;;;;;;;;;;5052556;28;20040;-73
2023/08/10 09:30:01;;;;;;;3.92;1.20;;;;;;;;;;5035144;28;20424;-73
2023/08/10 09:32:27;;;;;;;5.65;1.40;;;;;;;;;;5052744;28;20417;-73
2023/08/10 09:34:53;;;;;;;5.53;1.70;;;;;;;;;;5051341;28;20037;-74
2023/08/10 09:37:20;;;;;;;6.22;1.50;;;;;;;;;;5051118;28;20044;-74
2023/08/10 09:39:46;;;;;;;4.07;1.73;;;;;;;;;;5051194;28;20075;-73
2023/08/10 09:42:13;;;;;;;5.10;1.30;;;;;;;;;;5052589;28;20041;-73
2023/08/10 09:44:46;;;;;;;3.75;1.20;;;;;;;;;;5051389;28;20056;-73
2023/08/10 09:47:12;;;;;;;2.78;1.40;;;;;;;;;;5051194;28;20041;-73
2023/08/10 09:50:02;;;;;;;4.68;1.50;;;;;;;;;;5033298;28;20100;-73
2023/08/10 09:52:28;;;;;;;5.60;1.75;;;;;;;;;;5050756;28;20436;-74
2023/08/10 09:54:55;;;;;;;4.50;1.55;;;;;;;;;;5052282;28;20040;-73
2023/08/10 09:57:22;;;;;;;5.40;1.40;;;;;;;;;;5051093;28;20516;-73
2023/08/10 09:59:48;;;;;;;5.15;1.52;;;;;;;;;;5051096;28;20049;-73
2023/08/10 10:02:15;;;;;;;3.25;1.30;;;;;;;;;;5052361;28;20043;-73
2023/08/10 10:04:45;;;;;;;3.88;1.60;;;;;;;;;;5050679;28;20048;-74
2023/08/10 10:07:12;;;;;;;5.53;1.50;;;;;;;;;;5054472;28;20041;-73
2023/08/10 10:09:39;;;;;;;4.82;1.75;;;;;;;;;;5054236;28;20048;-73
2023/08/10 10:12:08;;;;;;;6.00;1.52;;;;;;;;;;5050070;28;20444;-73
2023/08/10 10:14:41;;;;;;;5.18;1.85;;;;;;;;;;5047092;28;20045;-74
2023/08/10 10:17:09;;;;;;;2.95;1.42;;;;;;;;;;5044136;28;20063;-73
2023/08/10 10:19:35;;;;;;;9.02;1.77;;;;;;;;;;5038414;28;20053;-73
2023/08/10 10:22:01;;;;;;;4.47;1.50;;;;;;;;;;5076245;28;20045;-73
2023/08/10 10:24:28;;;;;;;2.92;1.70;;;;;;;;;;5047426;28;20087;-73
2023/08/10 10:26:58;;;;;;;3.83;2.00;;;;;;;;;;5040510;28;20046;-73
2023/08/10 10:29:35;;;;;;;11.13;2.15;;;;;;;;;;5040183;28;20512;-73
2023/08/10 10:32:21;;;;;;;7.18;2.13;;;;;;;;;;5040015;28;20460;-73
2023/08/10 10:34:47;;;;;;;4.63;2.03;;;;;;;;;;5061308;28;20110;-74
2023/08/10 10:37:18;;;;;;;6.05;2.20;;;;;;;;;;5027844;28;20099;-73
2023/08/10 10:39:53;;;;;;;6.82;2.47;;;;;;;;;;5038626;28;20124;-73
2023/08/10 10:42:20;;;;;;;4.50;2.50;;;;;;;;;;5041060;28;20048;-74
2023/08/10 10:45:00;;;;;;;5.47;2.28;;;;;;;;;;5048476;28;20041;-73
2023/08/10 10:47:39;;;;;;;6.45;2.63;;;;;;;;;;5074212;28;20282;-73
2023/08/10 10:50:15;;;;;;;7.10;2.75;;;;;;;;;;5038216;28;20041;-73
2023/08/10 10:52:41;;;;;;;6.13;3.15;;;;;;;;;;5042614;28;20385;-74
2023/08/10 10:55:10;;;;;;;7.05;3.78;;;;;;;;;;5052418;28;20040;-74
2023/08/10 10:57:40;;;;;;;9.05;3.55;;;;;;;;;;5054271;28;20094;-73
2023/08/10 11:00:07;;;;;;;7.60;3.20;;;;;;;;;;5055307;28;20080;-73
2023/08/10 11:02:34;;;;;;;9.27;3.72;;;;;;;;;;5036853;28;20036;-73
2023/08/10 11:05:00;;;;;;;8.43;3.20;;;;;;;;;;5053804;28;20048;-73
2023/08/10 11:07:27;;;;;;;8.18;3.10;;;;;;;;;;5053943;28;20072;-73
2023/08/10 11:09:53;;;;;;;5.82;2.60;;;;;;;;;;5051270;28;20075;-73
2023/08/10 11:12:19;;;;;;;6.95;2.92;;;;;;;;;;5052865;28;20041;-73
2023/08/10 11:14:45;;;;;;;7.60;2.75;;;;;;;;;;5060346;28;20048;-73
2023/08/10 11:17:11;;;;;;;6.07;2.70;;;;;;;;;;5049031;28;20053;-73
2023/08/10 11:19:38;;;;;;;7.35;3.10;;;;;;;;;;5053106;28;20076;-73
2023/08/10 11:22:04;;;;;;;4.85;2.58;;;;;;;;;;5043456;28;20075;-73
2023/08/10 11:24:30;;;;;;;5.82;3.05;;;;;;;;;;5062532;28;20049;-73
2023/08/10 11:26:57;;;;;;;6.07;2.83;;;;;;;;;;5048948;28;20041;-74
2023/08/10 11:29:23;;;;;;;5.70;2.50;;;;;;;;;;5036771;28;20075;-74
2023/08/10 11:31:49;;;;;;;5.88;2.85;;;;;;;;;;5052210;28;20068;-73
2023/08/10 11:34:34;;;;;;;8.27;2.70;;;;;;;;;;5046570;28;20052;-73
2023/08/10 11:37:01;;;;;;;9.45;2.63;;;;;;;;;;5047940;28;20512;-73
2023/08/10 11:39:27;;;;;;;8.25;2.85;;;;;;;;;;5028755;28;20042;-73
2023/08/10 11:41:54;;;;;;;5.90;2.80;;;;;;;;;;5037157;28;20042;-74
2023/08/10 11:44:28;;;;;;;3.60;2.25;;;;;;;;;;5055462;28;20115;-75
2023/08/10 11:46:58;;;;;;;6.18;2.42;;;;;;;;;;5035975;28;20132;-73
2023/08/10 11:49:31;;;;;;;6.03;2.50;;;;;;;;;;5049334;28;20378;-73
2023/08/10 11:52:02;;;;;;;8.88;2.63;;;;;;;;;;5036941;28;20067;-73
2023/08/10 11:54:34;;;;;;;4.57;2.33;;;;;;;;;;5046063;28;20045;-73
2023/08/10 11:57:11;;;;;;;8.02;2.33;;;;;;;;;;5052920;28;20094;-73
2023/08/10 11:59:37;;;;;;;5.13;2.80;;;;;;;;;;5037319;28;20037;-73
2023/08/10 12:02:04;;;;;;;5.07;2.60;;;;;;;;;;5053186;28;20552;-73
2023/08/10 12:04:33;;;;;;;5.43;2.88;;;;;;;;;;5052798;28;20116;-73
2023/08/10 12:07:00;;;;;;;5.78;2.80;;;;;;;;;;5052559;28;20048;-73
2023/08/10 12:09:31;;;;;;;6.38;2.60;;;;;;;;;;5053814;28;20048;-70
2023/08/10 12:11:57;;;;;;;5.80;2.80;;;;;;;;;;5052855;28;20516;-73
2023/08/10 12:14:27;;;;;;;8.15;2.78;;;;;;;;;;5035959;28;20040;-73
2023/08/10 12:16:53;;;;;;;5.80;2.58;;;;;;;;;;5052381;28;20041;-73
2023/08/10 12:19:20;;;;;;;6.03;2.70;;;;;;;;;;5054043;28;20511;-74
2023/08/10 12:21:46;;;;;;;11.68;3.10;;;;;;;;;;5050271;28;20057;-73
2023/08/10 12:24:12;;;;;;;10.02;2.85;;;;;;;;;;5019494;28;20049;-73
2023/08/10 12:26:38;;;;;;;6.88;2.60;;;;;;;;;;5047137;28;20055;-74
2023/08/10 12:29:04;;;;;;;7.10;2.70;;;;;;;;;;5048020;28;20382;-79
2023/08/10 12:31:30;;;;;;;6.32;2.90;;;;;;;;;;5042762;28;20067;-81
2023/08/10 12:33:57;;;;;;;5.50;2.78;;;;;;;;;;5036813;28;20044;-79
2023/08/10 12:36:23;;;;;;;7.28;3.55;;;;;;;;;;5037380;28;20110;-78
2023/08/10 12:38:49;;;;;;;7.60;3.70;;;;;;;;;;5082736;28;20041;-79
2023/08/10 12:41:15;;;;;;;6.10;3.25;;;;;;;;;;5084214;28;20045;-78
2023/08/10 12:43:41;;;;;;;6.53;3.30;;;;;;;;;;5050196;28;20044;-79
2023/08/10 12:46:08;;;;;;;7.18;3.13;;;;;;;;;;5053370;28;20045;-80
2023/08/10 12:48:34;;;;;;;5.45;3.95;;;;;;;;;;5053364;28;20045;-76
2023/08/10 12:51:01;;;;;;;6.90;3.80;;;;;;;;;;5053039;28;20037;-75
2023/08/10 12:53:27;;;;;;;7.05;3.53;;;;;;;;;;5051244;28;20045;-76
2023/08/10 12:55:53;;;;;;;7.05;3.22;;;;;;;;;;5051727;28;20036;-75
2023/08/10 12:58:19;;;;;;;4.32;2.97;;;;;;;;;;5051520;28;20051;-79
2023/08/10 13:00:45;;;;;;;9.90;4.20;;;;;;;;;;5051339;28;20045;-77
2023/08/10 13:03:12;;;;;;;8.02;4.35;;;;;;;;;;5035208;28;20051;-75
2023/08/10 13:05:38;;;;;;;8.63;4.43;;;;;;;;;;5052856;28;20092;-75
2023/08/10 13:08:04;;;;;;;10.90;4.30;;;;;;;;;;5047299;28;20151;-74
2023/08/10 13:10:30;;;;;;;8.68;4.05;;;;;;;;;;5052611;28;20047;-74
2023/08/10 13:12:57;;;;;;;9.40;4.47;;;;;;;;;;5054715;28;20048;-74
2023/08/10 13:15:23;;;;;;;8.98;4.45;;;;;;;;;;5049295;28;20095;-74
2023/08/10 13:17:49;;;;;;;6.78;3.63;;;;;;;;;;5049828;28;20029;-74
2023/08/10 13:20:15;;;;;;;7.20;4.10;;;;;;;;;;5082731;28;20040;-74
2023/08/10 13:22:44;;;;;;;11.00;4.57;;;;;;;;;;5051180;28;20489;-74
2023/08/10 13:25:10;;;;;;;7.53;4.15;;;;;;;;;;5050591;28;20043;-71
2023/08/10 13:27:36;;;;;;;7.68;4.00;;;;;;;;;;5079968;28;20051;-70
2023/08/10 13:30:02;;;;;;;9.00;3.35;;;;;;;;;;5051391;28;20045;-70
2023/08/10 13:32:28;;;;;;;7.35;4.20;;;;;;;;;;5037872;28;20049;-73
2023/08/10 13:34:55;;;;;;;9.23;4.57;;;;;;;;;;5058869;28;20041;-74
2023/08/10 13:37:21;;;;;;;7.53;4.05;;;;;;;;;;5043533;28;20033;-74
2023/08/10 13:39:47;;;;;;;8.40;4.45;;;;;;;;;;5039093;28;20409;-74
2023/08/10 13:42:13;;;;;;;8.48;4.85;;;;;;;;;;5041712;28;20123;-74
2023/08/10 13:44:39;;;;;;;7.15;3.92;;;;;;;;;;5040303;28;20041;-74
2023/08/10 13:47:06;;;;;;;8.15;4.65;;;;;;;;;;5043341;28;20120;-73
2023/08/10 13:49:34;;;;;;;9.23;4.60;;;;;;;;;;5048877;28;20481;-75
2023/08/10 13:52:01;;;;;;;10.10;4.00;;;;;;;;;;5056744;28;20474;-74
2023/08/10 13:54:27;;;;;;;9.82;3.97;;;;;;;;;;5074920;28;20036;-74
2023/08/10 13:56:53;;;;;;;9.80;4.50;;;;;;;;;;5042795;28;20041;-74
2023/08/10 13:59:19;;;;;;;9.50;4.00;;;;;;;;;;5055833;28;20040;-74
2023/08/10 14:01:45;;;;;;;7.15;3.88;;;;;;;;;;5057599;28;20068;-74
2023/08/10 14:04:11;;;;;;;8.27;3.80;;;;;;;;;;5044562;28;20383;-74
2023/08/10 14:06:37;;;;;;;10.55;3.95;;;;;;;;;;5038339;28;20041;-74
2023/08/10 14:09:03;;;;;;;8.73;3.78;;;;;;;;;;5033110;28;20045;-74
2023/08/10 14:11:30;;;;;;;8.07;3.70;;;;;;;;;;5052664;28;20116;-74
2023/08/10 14:13:56;;;;;;;9.82;3.50;;;;;;;;;;5034985;28;20621;-74
2023/08/10 14:16:22;;;;;;;8.02;3.60;;;;;;;;;;5038144;28;20056;-75
2023/08/10 14:18:48;;;;;;;22.15;4.57;;;;;;;;;;5078924;28;20049;-74
2023/08/10 14:21:14;;;;;;;7.68;3.83;;;;;;;;;;5050433;28;20473;-75
2023/08/10 14:23:40;;;;;;;11.02;4.10;;;;;;;;;;5049701;28;20379;-74
2023/08/10 14:26:06;;;;;;;9.68;3.75;;;;;;;;;;5045319;28;20070;-74
2023/08/10 14:28:32;;;;;;;9.85;3.90;;;;;;;;;;5048705;28;20079;-74
2023/08/10 14:30:59;;;;;;;11.98;4.10;;;;;;;;;;5029185;28;20057;-74
2023/08/10 14:33:25;;;;;;;7.03;4.18;;;;;;;;;;5048017;28;20059;-74
2023/08/10 14:35:51;;;;;;;7.38;4.32;;;;;;;;;;5046439;28;20045;-74
2023/08/10 14:38:17;;;;;;;6.90;3.65;;;;;;;;;;5080284;28;20143;-75
2023/08/10 14:40:43;;;;;;;6.80;3.97;;;;;;;;;;5049576;28;20047;-74
2023/08/10 14:43:09;;;;;;;6.25;4.47;;;;;;;;;;5045228;28;20036;-74